• Join FlightAware (Why Join?)
  • Login
  • US Flag GB Flag 
03:10 EST


 

Airport Tracker/Info


-or-


 

Live Flight TrackerFlight Track Log ✈ SWA3247 ✈ 26-Jun-2013 ✈ KLAS - KALB

Flight Track Log - Related Links

Times and Time Zones

All times are in EDT time to prevent confusion due to time zone crossing. See the SWA3247 flight status page for this flight to view local times or setup timezone preferences in your user account.

Time Position Orientation Groundspeed Altitude Reporting Facility
EDT Latitude Longitude Course Direction KTS MPH feet Rate Location/Type
20:37 36.0764 -115.1894 269° West 192 221 3,400  Level Los Angeles Center
20:37 36.0758 -115.2267 269° West 200 230 4,100 1,680 Climbing Los Angeles Center
20:38 36.0869 -115.2756 286° West 233 268 5,500 2,220 Climbing Los Angeles Center
20:39 36.1525 -115.2858 353° North 258 297 8,000 2,280 Climbing Los Angeles Center
20:40 36.1894 -115.2072 60° Northeast 267 307 10,300 1,680 Climbing Los Angeles Center
20:41 36.1981 -115.0975 84° East 309 356 11,500 1,740 Climbing Los Angeles Center
20:42 36.1981 -114.9406 90° East 369 425 14,000 2,340 Climbing Los Angeles Center
20:43 36.2000 -114.8053 89° East 389 448 16,400 2,220 Climbing Los Angeles Center
20:44 36.1986 -114.6689 91° East 395 455 18,700 1,920 Climbing Los Angeles Center
20:45 36.1958 -114.5258 91° East 412 474 20,400 1,740 Climbing Los Angeles Center
20:46 36.1942 -114.3792 91° East 425 489 22,400 1,800 Climbing Los Angeles Center
20:47 36.1972 -114.2303 88° East 431 496 24,200 1,740 Climbing Los Angeles Center
20:48 36.2553 -114.0592 67° East 449 517 26,000 1,500 Climbing Los Angeles Center
20:49 36.3031 -113.9114 68° East 459 528 27,400 1,320 Climbing Los Angeles Center
20:50 36.3511 -113.7617 68° East 466 536 28,800 1,500 Climbing Los Angeles Center
20:51 36.4014 -113.6106 68° East 473 544 30,600 1,740 Climbing Los Angeles Center
20:52 36.4497 -113.4625 68° East 466 536 32,500 1,140 Climbing Los Angeles Center
20:53 36.5019 -113.3017 68° East 459 528 33,000 240 Climbing Los Angeles Center
20:54 36.5486 -113.1567 68° East 455 524 33,000  Level Los Angeles Center
20:55 36.5958 -113.0106 68° East 457 526 33,000  Level Los Angeles Center
20:56 36.6422 -112.8644 68° East 456 525 33,100 840 Climbing Los Angeles Center
20:57 36.6972 -112.6900 68° East 455 524 34,800 1,260 Climbing Los Angeles Center
20:58 36.7436 -112.5450 68° East 453 521 35,800 900 Climbing Los Angeles Center
20:59 36.7889 -112.3975 69° East 457 526 36,700 540 Climbing Los Angeles Center
21:00 36.8342 -112.2528 69° East 452 520 37,000 120 Climbing Los Angeles Center
21:01 36.8811 -112.1064 68° East 455 524 37,000  Level Los Angeles Center
21:03 36.9339 -111.9319 69° East 452 520 37,000  Level Los Angeles Center
21:04 36.9803 -111.7850 68° East 454 522 37,000  Level Los Angeles Center
21:05 37.0258 -111.6378 69° East 455 524 37,000  Level Los Angeles Center
21:05 37.0531 -111.5500 69° East 454 522 37,000  Level Denver Center
21:06 37.1011 -111.4069 67° East 451 519 37,000  Level Denver Center
21:07 37.1497 -111.2622 67° East 453 521 37,000  Level Denver Center
21:08 37.1989 -111.1158 67° East 456 525 37,000  Level Denver Center
21:09 37.2581 -110.9417 67° East 455 524 37,000  Level Denver Center
21:10 37.3067 -110.7950 67° East 456 525 37,000  Level Denver Center
21:11 37.3550 -110.6497 67° East 453 521 37,000  Level Denver Center
21:12 37.4025 -110.5031 68° East 453 521 37,000  Level Denver Center
21:13 37.4508 -110.3578 67° East 453 521 37,000  Level Denver Center
21:15 37.5058 -110.1875 68° East 453 521 37,000  Level Denver Center
21:16 37.5525 -110.0444 68° East 459 528 37,000  Level Denver Center
21:17 37.6061 -109.8775 68° East 460 529 37,000  Level Denver Center
21:18 37.6517 -109.7364 68° East 455 524 37,000  Level Denver Center
21:19 37.6969 -109.5925 68° East 458 527 37,000  Level Denver Center
21:20 37.7500 -109.4261 68° East 455 524 37,000  Level Denver Center
21:21 37.7953 -109.2842 68° East 454 522 37,000  Level Denver Center
21:22 37.8467 -109.1194 68° East 451 519 37,000  Level Denver Center
21:23 37.9058 -108.9300 68° East 452 520 37,000  Level Denver Center
21:24 37.9492 -108.7889 69° East 449 517 37,000  Level Denver Center
21:25 37.9933 -108.6503 68° East 446 513 37,000  Level Denver Center
21:26 38.0433 -108.4847 69° East 447 514 37,000  Level Denver Center
21:27 38.0883 -108.3367 69° East 454 522 37,000  Level Denver Center
21:28 38.1375 -108.1725 69° East 447 514 37,000  Level Denver Center
21:29 38.1803 -108.0292 69° East 451 519 37,000  Level Denver Center
21:30 38.2319 -107.8619 68° East 455 524 37,000  Level Denver Center
21:31 38.2736 -107.7200 69° East 450 518 37,000  Level Denver Center
21:32 38.3236 -107.5517 69° East 454 522 37,000  Level Denver Center
21:34 38.3744 -107.3819 69° East 458 527 37,000  Level Denver Center
21:35 38.4239 -107.2111 70° East 460 529 37,000  Level Denver Center
21:36 38.4694 -107.0558 69° East 454 522 37,000  Level Denver Center
21:37 38.5131 -106.9033 70° East 457 526 37,000  Level Denver Center
21:38 38.5572 -106.7514 70° East 457 526 37,000  Level Denver Center
21:39 38.6089 -106.5692 70° East 457 526 37,000  Level Denver Center
21:40 38.6525 -106.4158 70° East 458 527 37,000  Level Denver Center
21:41 38.7125 -106.2022 70° East 457 526 37,000  Level Denver Center
21:42 38.7661 -106.0114 70° East 457 526 37,000  Level Denver Center
21:43 38.8089 -105.8578 70° East 460 529 37,000  Level Denver Center
21:44 38.8517 -105.7053 70° East 458 527 37,000  Level Denver Center
21:45 38.8928 -105.5531 71° East 454 522 37,000  Level Denver Center
21:47 38.9339 -105.4011 71° East 454 522 37,000  Level Denver Center
21:48 38.9753 -105.2514 70° East 449 517 37,000  Level Denver Center
21:49 39.0236 -105.0706 71° East 449 517 37,000  Level Denver Center
21:50 39.0644 -104.9200 71° East 448 516 37,000  Level Denver Center
21:51 39.1053 -104.7697 71° East 449 517 37,000  Level Denver Center
21:52 39.1456 -104.6181 71° East 452 520 37,000  Level Denver Center
21:53 39.1853 -104.4656 71° East 453 521 37,000  Level Denver Center
21:54 39.2339 -104.2825 71° East 455 524 37,000  Level Denver Center
21:55 39.2736 -104.1286 72° East 457 526 37,000  Level Denver Center
21:56 39.3133 -103.9747 72° East 456 525 37,000  Level Denver Center
21:57 39.3528 -103.8217 72° East 453 521 37,000  Level Denver Center
21:58 39.3919 -103.6669 72° East 455 524 37,000  Level Denver Center
21:59 39.4314 -103.5142 71° East 452 520 37,000  Level Denver Center
22:00 39.4772 -103.3314 72° East 446 513 37,000  Level Denver Center
22:01 39.5156 -103.1772 72° East 451 519 37,000  Level Denver Center
22:02 39.5461 -103.0558 72° East 447 514 37,000  Level Denver Center
22:03 39.5897 -102.8742 73° East 442 509 37,000  Level Denver Center
22:04 39.6317 -102.7064 72° East 441 507 37,000  Level Denver Center
22:05 39.6669 -102.5611 72° East 441 507 37,000  Level Denver Center
22:06 39.7089 -102.3911 72° East 443 510 37,000  Level Denver Center
22:07 39.7442 -102.2458 72° East 442 509 37,000  Level Denver Center
22:08 39.7794 -102.1003 72° East 442 509 37,000  Level Denver Center
22:09 39.8194 -101.9281 73° East 445 512 37,000  Level Denver Center
22:10 39.8536 -101.7814 73° East 445 512 37,000  Level Denver Center
22:11 39.8947 -101.6106 73° East 444 511 37,000  Level Denver Center
22:12 39.9283 -101.4631 73° East 445 512 37,000  Level Denver Center
22:13 39.9678 -101.2908 73° East 446 513 37,000  Level Denver Center
22:14 40.0017 -101.1433 73° East 445 512 37,000  Level Denver Center
22:15 40.0414 -100.9692 73° East 449 517 37,000  Level Denver Center
22:16 40.0689 -100.8442 74° East 450 518 37,000  Level Denver Center
22:17 40.1136 -100.6447 74° East 450 518 37,000  Level Denver Center
22:18 40.1472 -100.4944 74° East 452 520 37,000  Level Denver Center
22:20 40.1856 -100.3194 74° East 451 519 37,000  Level Denver Center
22:21 40.2186 -100.1686 74° East 452 520 37,000  Level Denver Center
22:22 40.2569 -99.9947 74° East 449 517 37,000  Level Denver Center
22:23 40.2886 -99.8517 74° East 452 520 37,000  Level Denver Center
22:24 40.3217 -99.6936 75° East 451 519 37,000  Level Denver Center
22:25 40.3628 -99.4997 74° East 461 531 37,000  Level Denver Center
22:26 40.3908 -99.3739 74° East 458 527 37,000  Level Minneapolis Center
22:27 40.4314 -99.1792 75° East 463 533 37,000  Level Minneapolis Center
22:28 40.4642 -99.0167 75° East 463 533 37,000  Level Minneapolis Center
22:29 40.4992 -98.8539 74° East 465 535 37,000  Level Minneapolis Center
22:30 40.5311 -98.6917 75° East 463 533 37,000  Level Minneapolis Center
22:31 40.5644 -98.5289 75° East 464 534 37,000  Level Minneapolis Center
22:32 40.5967 -98.3658 75° East 464 534 37,000 480 Level Minneapolis Center
22:33 40.6356 -98.1728 75° East 460 529 38,100 960 Climbing Minneapolis Center
22:34 40.6669 -98.0114 76° East 459 528 39,000 420 Climbing Minneapolis Center
22:35 40.6983 -97.8492 76° East 459 528 39,000  Level Minneapolis Center
22:36 40.7300 -97.6864 76° East 460 529 39,000  Level Minneapolis Center
22:37 40.7656 -97.5233 74° East 463 533 39,000  Level Minneapolis Center
22:38 40.8236 -97.3578 65° Northeast 456 525 39,000  Level Minneapolis Center
22:39 40.8756 -97.2067 66° East 453 521 39,000  Level Minneapolis Center
22:40 40.9275 -97.0556 65° Northeast 453 521 39,000  Level Minneapolis Center
22:41 40.9889 -96.8725 66° East 453 521 39,000  Level Minneapolis Center
22:42 41.0344 -96.7192 68° East 452 520 39,000  Level Minneapolis Center
22:43 41.0617 -96.5536 78° East 458 527 39,000  Level Minneapolis Center
22:44 41.0964 -96.3558 77° East 460 529 39,000  Level Minneapolis Center
22:45 41.1236 -96.2028 77° East 465 535 39,000  Level Minneapolis Center
22:46 41.1528 -96.0375 77° East 465 535 39,000  Level Minneapolis Center
22:47 41.1867 -95.8389 77° East 459 528 39,000  Level Minneapolis Center
22:48 41.2150 -95.6717 77° East 465 535 39,000  Level Minneapolis Center
22:49 41.2414 -95.5022 78° East 460 529 39,000  Level Minneapolis Center
22:51 41.2703 -95.3356 77° East 464 534 39,000  Level Minneapolis Center
22:52 41.2986 -95.1694 77° East 463 533 39,000  Level Minneapolis Center
22:53 41.3247 -95.0039 78° East 461 531 39,000  Level Minneapolis Center
22:54 41.3514 -94.8367 78° East 461 531 39,000  Level Minneapolis Center
22:55 41.3778 -94.6725 78° East 458 527 39,000  Level Minneapolis Center
22:56 41.4039 -94.5044 78° East 461 531 39,000  Level Minneapolis Center
22:57 41.4381 -94.3031 77° East 464 534 39,000  Level Minneapolis Center
22:58 41.4583 -94.1644 79° East 465 535 39,000  Level Minneapolis Center
22:59 41.4892 -93.9631 78° East 465 535 39,000  Level Minneapolis Center
23:00 41.5147 -93.7950 78° East 466 536 39,000  Level Minneapolis Center
23:01 41.5406 -93.6258 78° East 467 537 39,000  Level Minneapolis Center
23:02 41.5669 -93.4575 78° East 467 537 39,000  Level Minneapolis Center
23:03 41.5908 -93.2897 79° East 464 534 39,000  Level Minneapolis Center
23:04 41.6158 -93.1214 79° East 464 534 39,000  Level Minneapolis Center
23:05 41.6503 -92.8881 79° East 462 532 39,000  Level Minneapolis Center
23:06 41.6739 -92.7189 79° East 465 535 39,000  Level Minneapolis Center
23:07 41.6967 -92.5639 79° East 465 535 39,000  Level Minneapolis Center
23:08 41.7094 -92.4586 81° East 468 539 39,000  Level Chicago Center
23:09 41.7336 -92.2889 79° East 470 541 39,000  Level Chicago Center
23:10 41.7564 -92.1175 80° East 473 544 39,000  Level Chicago Center
23:11 41.7794 -91.9458 80° East 474 545 39,000  Level Chicago Center
23:12 41.8072 -91.7408 80° East 473 544 39,000  Level Chicago Center
23:13 41.8294 -91.5689 80° East 475 547 39,000  Level Chicago Center
23:14 41.8528 -91.3994 79° East 472 543 39,000  Level Chicago Center
23:15 41.8742 -91.2297 80° East 467 537 39,000  Level Chicago Center
23:16 41.8958 -91.0589 80° East 470 541 39,000  Level Chicago Center
23:17 41.9208 -90.8575 80° East 462 532 39,000  Level Chicago Center
23:18 41.9417 -90.6881 81° East 465 535 39,000  Level Chicago Center
23:19 41.9622 -90.5214 81° East 459 528 39,000  Level Chicago Center
23:20 41.9831 -90.3511 81° East 466 536 39,000  Level Chicago Center
23:21 42.0019 -90.1847 81° East 459 528 39,000  Level Chicago Center
23:22 42.0269 -89.9808 81° East 465 535 39,000  Level Chicago Center
23:23 42.0439 -89.8297 81° East 457 526 39,000  Level Chicago Center
23:24 42.0636 -89.6603 81° East 460 529 39,000  Level Chicago Center
23:25 42.0833 -89.4711 82° East 466 536 39,000  Level Chicago Center
23:26 42.1019 -89.3014 82° East 463 533 39,000  Level Chicago Center
23:27 42.1217 -89.1308 81° East 463 533 39,000  Level Chicago Center
23:28 42.1431 -88.9339 82° East 459 528 39,000  Level Chicago Center
23:29 42.1603 -88.7747 82° East 461 531 39,000  Level Chicago Center
23:30 42.1783 -88.6047 82° East 460 529 39,000  Level Chicago Center
23:31 42.1950 -88.4344 82° East 460 529 39,000  Level Chicago Center
23:32 42.2122 -88.2631 82° East 461 531 39,000  Level Chicago Center
23:33 42.2333 -88.0553 82° East 466 536 39,000  Level Chicago Center
23:34 42.2508 -87.8797 82° East 471 542 39,000  Level Chicago Center
23:35 42.2678 -87.7056 82° East 470 541 39,000  Level Chicago Center
23:36 42.2836 -87.5281 83° East 476 548 39,000  Level Chicago Center
23:37 42.3003 -87.3522 83° East 475 547 39,000  Level Chicago Center
23:38 42.3172 -87.1764 83° East 474 545 39,000  Level Chicago Center
23:39 42.3319 -87.0031 83° East 469 540 39,000  Level Chicago Center
23:41 42.3508 -86.7936 83° East 469 540 39,000  Level Chicago Center
23:42 42.3633 -86.6458 83° East 471 542 39,000  Level Chicago Center
23:43 42.3819 -86.4353 83° East 472 543 39,000  Level Chicago Center
23:44 42.3964 -86.2619 84° East 469 540 39,000  Level Chicago Center
23:45 42.4108 -86.0883 84° East 469 540 39,000  Level Chicago Center
23:46 42.4244 -85.9136 84° East 471 542 39,000  Level Chicago Center
23:47 42.4381 -85.7378 84° East 475 547 39,000  Level Chicago Center
23:48 42.4528 -85.5619 83° East 475 547 39,000  Level Chicago Center
23:49 42.4658 -85.3839 84° East 478 550 39,000  Level Chicago Center
23:50 42.4822 -85.1722 84° East 474 545 39,000  Level Chicago Center
23:51 42.4947 -84.9986 84° East 469 540 39,000  Level Chicago Center
23:52 42.5075 -84.8242 84° East 468 539 39,000  Level Chicago Center
23:53 42.5194 -84.6508 85° East 465 535 39,000  Level Chicago Center
23:54 42.5317 -84.4764 85° East 468 539 39,000  Level Chicago Center
23:54 42.5364 -84.3425 87° East 459 528 39,000  Level Cleveland Center
23:55 42.5481 -84.1683 85° East 464 534 39,000  Level Cleveland Center
23:56 42.5597 -83.9914 85° East 464 534 39,000  Level Cleveland Center
23:57 42.5733 -83.8144 84° East 464 534 39,000  Level Cleveland Center
23:58 42.5844 -83.6344 85° East 464 534 39,000  Level Cleveland Center
23:59 42.5953 -83.4572 85° East 469 540 39,000  Level Cleveland Center
00:00 42.6058 -83.2744 85° East 474 545 39,000  Level Cleveland Center
00:01 42.6142 -83.0969 86° East 474 545 39,000  Level Cleveland Center
00:02 42.6242 -82.9167 86° East 474 545 39,000  Level Cleveland Center
00:03 42.6317 -82.7364 87° East 474 545 39,000  Level Cleveland Center
00:04 42.6414 -82.5561 86° East 474 545 39,000  Level Cleveland Center
00:05 42.6525 -82.3786 85° East 474 545 39,000  Level Cleveland Center
00:06 42.6594 -82.1981 87° East 474 545 39,000  Level Cleveland Center
00:07 42.6681 -82.0175 86° East 480 552 39,000  Level Cleveland Center
00:08 42.6742 -81.8397 87° East 475 547 39,000  Level Cleveland Center
00:09 42.6822 -81.6761 86° East 475 547 39,000  Level Cleveland Center
00:10 42.6900 -81.4842 87° East 475 547 39,000  Level Cleveland Center
00:11 42.6975 -81.3008 87° East 475 547 39,000  Level Cleveland Center
00:12 42.7047 -81.1228 87° East 475 547 39,000  Level Cleveland Center
00:13 42.7119 -80.9447 87° East 475 547 39,000  Level Cleveland Center
00:14 42.7206 -80.7669 86° East 475 547 39,000  Level Cleveland Center
00:15 42.7250 -80.5889 88° East 475 547 39,000  Level Cleveland Center
00:16 42.7289 -80.4022 88° East 475 547 39,000  Level Cleveland Center
00:17 42.7347 -80.2242 87° East 475 547 39,000  Level Cleveland Center
00:18 42.7425 -80.0658 86° East 475 547 39,000  Level Cleveland Center
00:19 42.7497 -79.8678 87° East 475 547 39,000  Level Cleveland Center
00:20 42.7547 -79.6925 88° East 475 547 39,000  Level Cleveland Center
00:21 42.7575 -79.5114 89° East 475 547 39,000  Level Cleveland Center
00:22 42.7578 -79.3361 90° East 470 541 39,000 -180 Level Cleveland Center
00:23 42.7642 -79.1606 87° East 470 541 38,700 -720 Descending Cleveland Center
00:24 42.7681 -78.9881 88° East 465 535 37,600 -1,020 Descending Cleveland Center
00:25 42.7719 -78.8183 88° East 454 522 36,700 -960 Descending Cleveland Center
00:26 42.7733 -78.6486 89° East 454 522 35,700 -960 Descending Cleveland Center
00:27 42.7764 -78.4731 89° East 454 522 34,800 -960 Descending Cleveland Center
00:28 42.7775 -78.3006 89° East 459 528 33,800 -900 Descending Cleveland Center
00:29 42.7800 -78.1222 89° East 459 528 33,000 -420 Descending Cleveland Center
00:30 42.7825 -77.9467 89° East 459 528 33,000  Level Cleveland Center
00:31 42.7844 -77.7739 89° East 459 528 33,000  Level Cleveland Center
00:32 42.7864 -77.5983 89° East 459 528 33,000  Level Cleveland Center
00:33 42.7858 -77.4231 90° East 459 528 33,000 -300 Level Cleveland Center
00:35 42.7856 -77.1742 90° East 454 522 32,300 -660 Descending Boston Center
00:36 42.7861 -77.0069 90° East 449 517 31,400 -1,020 Descending Boston Center
00:37 42.7867 -76.8344 90° East 449 517 30,300 -1,080 Descending Boston Center
00:38 42.7867 -76.6647 90° East 449 517 29,300 -660 Descending Boston Center
00:39 42.7867 -76.4975 90° East 444 511 29,000 -180 Descending Boston Center
00:40 42.7858 -76.3361 90° East 439 505 29,000  Level Boston Center
00:41 42.7817 -76.1519 92° East 439 505 29,000  Level Boston Center
00:42 42.7847 -75.9908 88° East 439 505 29,000  Level Boston Center
00:43 42.7836 -75.8239 90° East 439 505 29,000 -60 Level Boston Center
00:44 42.7800 -75.6567 92° East 439 505 28,900 -1,080 Descending Boston Center
00:45 42.7797 -75.5236 90° East 439 505 26,900 -2,220 Descending Boston Center
00:46 42.7764 -75.3283 91° East 439 505 24,500 -2,160 Descending Boston Center
00:47 42.7761 -75.1728 90° East 439 505 22,600 -1,860 Descending Boston Center
00:48 42.7711 -75.0253 93° East 413 475 20,800 -1,800 Descending Boston Center
00:49 42.7703 -74.8811 90° East 394 453 19,000 -1,800 Descending Boston Center
00:50 42.7664 -74.7650 93° East 366 421 17,500 -1,800 Descending Boston Center
00:51 42.7633 -74.6064 91° East 361 415 15,400 -2,700 Descending Boston Center
00:52 42.7697 -74.4822 86° East 376 433 12,100 -2,340 Descending Boston Center
00:53 42.7847 -74.3356 82° East 361 415 10,800 -1,560 Descending Boston Center
00:54 42.7906 -74.2311 86° East 323 372 8,800 -2,700 Descending Boston Center
00:55 42.8028 -74.1153 82° East 293 337 5,400 -2,760 Descending Boston Center
00:56 42.8125 -74.0222 82° East 274 315 3,500 -1,320 Descending Boston Center
00:57 42.8178 -73.9375 85° East 228 262 3,000 -840 Descending Boston Center
00:58 42.8083 -73.8550 99° East 209 241 2,000 -960 Descending Boston Center
00:59 42.7883 -73.8008 117° Southeast 154 177 1,100 -540 Descending Boston Center
01:00 42.7806 -73.7414 100° East 195 224 900 -180 Descending Boston Center